Time;durP1;ratioP1;P1;durP2;ratioP2;P2;SDS_P1;SDS_P2;PMS_P1;PMS_P2;Temp;Humidity;BMP_temperature;BMP_pressure;BME280_temperature;BME280_humidity;BME280_pressure;Samples;Min_cycle;Max_cycle;Signal;HPM_P1;HPM_P2
2022/04/05 00:00:01;;;;;;;17.88;2.85;;;7.00;99.90;;;;;;5080217;28;20590;-70
2022/04/05 00:02:27;;;;;;;18.23;2.47;;;6.90;99.90;;;;;;5086361;28;20044;-70
2022/04/05 00:04:52;;;;;;;17.00;2.72;;;6.90;99.90;;;;;;5080771;28;20040;-70
2022/04/05 00:07:18;;;;;;;16.00;2.95;;;7.00;99.90;;;;;;5078103;28;20101;-70
2022/04/05 00:09:44;;;;;;;16.25;2.75;;;6.90;99.90;;;;;;5086872;28;20036;-70
2022/04/05 00:12:09;;;;;;;14.98;2.85;;;6.90;99.90;;;;;;5081460;28;20036;-70
2022/04/05 00:14:35;;;;;;;11.45;2.58;;;6.90;99.90;;;;;;5073114;28;20075;-70
2022/04/05 00:17:02;;;;;;;15.93;2.63;;;6.90;99.90;;;;;;5076832;28;20048;-70
2022/04/05 00:19:28;;;;;;;14.02;2.53;;;6.90;99.90;;;;;;5082577;28;20047;-70
2022/04/05 00:21:54;;;;;;;21.88;2.42;;;7.00;99.90;;;;;;5090930;28;20097;-71
2022/04/05 00:24:20;;;;;;;35.50;3.08;;;7.50;99.90;;;;;;5084724;28;20043;-70
2022/04/05 00:26:46;;;;;;;23.45;3.08;;;6.90;99.90;;;;;;5072912;28;20089;-70
2022/04/05 00:29:12;;;;;;;19.55;2.45;;;6.90;99.90;;;;;;5072500;28;20127;-70
2022/04/05 00:31:37;;;;;;;11.80;2.53;;;7.00;99.90;;;;;;5074709;28;20040;-69
2022/04/05 00:34:03;;;;;;;21.98;2.55;;;6.90;99.90;;;;;;5086364;28;20036;-69
2022/04/05 00:36:29;;;;;;;26.88;3.38;;;6.90;99.90;;;;;;5083957;28;20049;-70
2022/04/05 00:38:55;;;;;;;23.45;3.08;;;6.90;99.90;;;;;;5101408;28;20544;-70
2022/04/05 00:41:21;;;;;;;20.25;2.75;;;6.90;99.90;;;;;;5087574;28;20040;-68
2022/04/05 00:43:46;;;;;;;21.70;2.90;;;5.60;99.90;;;;;;5086444;28;20050;-70
2022/04/05 00:46:15;;;;;;;16.45;2.83;;;6.80;99.90;;;;;;5079125;28;20048;-70
2022/04/05 00:48:51;;;;;;;;;;;6.80;99.90;;;;;;5075521;28;20516;-70
2022/04/05 00:51:18;;;;;;;18.42;2.65;;;6.80;99.90;;;;;;5082390;28;19973;-70
2022/04/05 00:53:47;;;;;;;33.92;3.90;;;6.80;99.90;;;;;;5075314;28;20501;-71
2022/04/05 00:56:23;;;;;;;23.85;3.35;;;6.80;99.90;;;;;;5077296;28;20512;-70
2022/04/05 00:58:54;;;;;;;22.27;3.05;;;6.80;99.90;;;;;;5082805;28;20032;-70
2022/04/05 01:01:21;;;;;;;18.83;3.17;;;6.80;99.90;;;;;;5080317;28;20041;-69
2022/04/05 01:03:50;;;;;;;17.33;2.85;;;6.80;99.90;;;;;;5081647;28;20078;-71
2022/04/05 01:06:17;;;;;;;18.55;2.67;;;6.80;99.90;;;;;;5089649;28;20044;-69
2022/04/05 01:08:46;;;;;;;20.70;3.20;;;6.80;99.90;;;;;;5089954;28;20052;-70
2022/04/05 01:11:15;;;;;;;18.58;2.60;;;6.80;99.90;;;;;;5081081;28;20040;-71
2022/04/05 01:13:41;;;;;;;;;;;6.80;99.90;;;;;;5077603;28;20454;-70
2022/04/05 01:16:07;;;;;;;19.48;3.00;;;7.00;99.90;;;;;;5082298;28;20294;-70
2022/04/05 01:18:33;;;;;;;17.25;2.60;;;7.60;99.90;;;;;;5080526;28;20036;-71
2022/04/05 01:20:59;;;;;;;26.13;3.28;;;6.80;99.90;;;;;;5074673;28;20044;-69
2022/04/05 01:23:25;;;;;;;21.70;2.88;;;6.70;99.90;;;;;;5076137;28;20036;-70
2022/04/05 01:25:56;;;;;;;16.15;2.90;;;6.70;99.90;;;;;;5084246;28;20072;-71
2022/04/05 01:28:22;;;;;;;21.98;3.92;;;6.70;99.90;;;;;;5080489;28;20119;-69
2022/04/05 01:30:48;;;;;;;19.38;3.25;;;6.80;99.90;;;;;;5084639;28;20041;-70
2022/04/05 01:33:14;;;;;;;28.02;2.65;;;6.70;99.90;;;;;;5076320;28;20036;-69
2022/04/05 01:35:40;;;;;;;13.90;2.22;;;6.70;99.90;;;;;;5083234;28;20131;-70
2022/04/05 01:38:10;;;;;;;13.40;2.33;;;6.60;99.90;;;;;;5078278;28;20122;-71
2022/04/05 01:40:37;;;;;;;19.05;2.58;;;6.50;99.90;;;;;;5079253;28;20044;-71
2022/04/05 01:43:04;;;;;;;10.60;2.03;;;6.50;99.90;;;;;;5083503;28;20048;-70
2022/04/05 01:45:30;;;;;;;17.58;2.75;;;6.40;99.90;;;;;;5081716;28;20499;-70
2022/04/05 01:47:56;;;;;;;16.67;2.30;;;6.40;99.90;;;;;;5074641;28;20187;-71
2022/04/05 01:50:22;;;;;;;19.38;3.33;;;6.30;99.90;;;;;;5082818;28;20385;-70
2022/04/05 01:52:47;;;;;;;22.05;2.90;;;6.30;99.90;;;;;;5075033;28;20386;-69
2022/04/05 01:55:13;;;;;;;29.55;3.72;;;6.30;99.90;;;;;;5077229;28;20070;-71
2022/04/05 01:57:39;;;;;;;19.00;2.40;;;6.30;99.90;;;;;;5071296;28;20056;-70
2022/04/05 02:00:07;;;;;;;21.88;2.92;;;6.30;99.90;;;;;;5071453;28;20389;-70
2022/04/05 02:02:33;;;;;;;21.30;2.80;;;6.20;99.90;;;;;;5085197;28;20037;-70
2022/04/05 02:04:58;;;;;;;18.02;3.45;;;6.20;99.90;;;;;;5073969;28;20050;-69
2022/04/05 02:07:24;;;;;;;18.52;2.65;;;6.30;99.90;;;;;;5074749;28;20402;-70
2022/04/05 02:09:50;;;;;;;22.10;3.28;;;6.20;99.90;;;;;;5076946;28;20041;-70
2022/04/05 02:12:17;;;;;;;20.45;3.00;;;6.30;99.90;;;;;;5073258;28;20474;-69
2022/04/05 02:14:42;;;;;;;18.83;2.30;;;6.20;99.90;;;;;;5085341;28;20044;-70
2022/04/05 02:17:09;;;;;;;23.40;2.72;;;6.20;99.90;;;;;;5090175;28;20501;-70
2022/04/05 02:19:36;;;;;;;25.65;3.05;;;6.20;99.90;;;;;;5079943;28;20098;-70
2022/04/05 02:22:02;;;;;;;23.60;3.00;;;6.30;99.90;;;;;;5076936;28;20083;-70
2022/04/05 02:24:28;;;;;;;22.98;3.17;;;6.20;99.90;;;;;;5077496;28;20074;-70
2022/04/05 02:26:54;;;;;;;17.45;2.97;;;6.20;99.90;;;;;;5088662;28;20637;-69
2022/04/05 02:29:22;;;;;;;24.83;3.25;;;6.20;99.90;;;;;;5080457;28;20052;-71
2022/04/05 02:31:48;;;;;;;14.40;3.33;;;6.20;99.90;;;;;;5079567;28;20039;-71
2022/04/05 02:34:14;;;;;;;21.35;2.50;;;6.20;99.90;;;;;;5071938;28;20040;-69
2022/04/05 02:36:39;;;;;;;22.92;3.25;;;6.20;99.90;;;;;;5075750;28;20049;-70
2022/04/05 02:39:06;;;;;;;25.60;3.47;;;7.10;99.90;;;;;;5079945;28;20482;-69
2022/04/05 02:41:34;;;;;;;30.67;3.05;;;6.20;99.90;;;;;;5084437;28;20040;-70
2022/04/05 02:44:00;;;;;;;;;;;6.20;99.90;;;;;;5079388;28;20127;-69
2022/04/05 02:46:27;;;;;;;23.27;3.25;;;6.20;99.90;;;;;;5082201;28;20366;-69
2022/04/05 02:48:54;;;;;;;24.73;2.88;;;6.20;99.90;;;;;;5084672;28;20054;-69
2022/04/05 02:51:21;;;;;;;34.13;4.00;;;6.30;99.90;;;;;;5079646;28;20044;-70
2022/04/05 02:53:47;;;;;;;23.02;3.22;;;6.30;99.90;;;;;;5072476;28;20110;-69
2022/04/05 02:56:13;;;;;;;15.98;2.78;;;6.30;99.90;;;;;;5075896;28;20040;-70
2022/04/05 02:58:40;;;;;;;29.10;3.47;;;6.30;99.90;;;;;;5082670;28;20048;-69
2022/04/05 03:01:08;;;;;;;27.33;4.57;;;6.20;99.90;;;;;;5090369;28;20074;-69
2022/04/05 03:03:34;;;;;;;25.42;3.45;;;6.30;99.90;;;;;;5079657;28;20048;-70
2022/04/05 03:06:00;;;;;;;25.58;3.40;;;6.30;99.90;;;;;;5083208;28;20040;-70
2022/04/05 03:08:26;;;;;;;16.85;2.95;;;6.30;99.90;;;;;;5084517;28;20044;-70
2022/04/05 03:10:53;;;;;;;24.90;3.28;;;6.30;99.90;;;;;;5081135;28;20044;-70
2022/04/05 03:13:19;;;;;;;31.40;3.70;;;6.20;99.90;;;;;;5087482;28;20054;-70
2022/04/05 03:15:45;;;;;;;28.65;4.47;;;6.20;99.90;;;;;;5084679;28;20170;-69
2022/04/05 03:18:11;;;;;;;21.63;2.42;;;6.20;99.90;;;;;;5087769;28;20466;-69
2022/04/05 03:20:37;;;;;;;30.23;3.50;;;6.20;99.90;;;;;;5079382;28;20152;-70
2022/04/05 03:23:04;;;;;;;23.20;2.95;;;6.20;99.90;;;;;;5075201;28;20036;-71
2022/04/05 03:25:30;;;;;;;21.55;2.97;;;6.20;99.90;;;;;;5073465;28;20478;-69
2022/04/05 03:27:59;;;;;;;27.85;2.92;;;6.20;99.90;;;;;;5079746;28;20133;-69
2022/04/05 03:30:24;;;;;;;25.65;3.05;;;6.10;99.90;;;;;;5084580;28;20045;-70
2022/04/05 03:32:50;;;;;;;19.33;3.22;;;6.10;99.90;;;;;;5088553;28;20050;-69
2022/04/05 03:35:16;;;;;;;21.23;3.28;;;6.10;99.90;;;;;;5077152;28;20051;-69
2022/04/05 03:37:42;;;;;;;19.75;3.58;;;6.10;99.90;;;;;;5084782;28;20048;-70
2022/04/05 03:40:08;;;;;;;22.25;2.67;;;6.10;99.90;;;;;;5073679;28;20099;-69
2022/04/05 03:42:38;;;;;;;21.25;3.20;;;6.10;99.90;;;;;;5073720;28;20036;-71
2022/04/05 03:45:07;;;;;;;20.10;3.90;;;6.10;99.90;;;;;;5079775;28;20039;-70
2022/04/05 03:47:32;;;;;;;16.75;2.40;;;6.00;99.90;;;;;;5083065;28;20083;-69
2022/04/05 03:49:59;;;;;;;10.07;2.17;;;6.00;99.90;;;;;;5080709;28;20071;-69
2022/04/05 03:52:25;;;;;;;20.10;3.03;;;6.40;99.90;;;;;;5082502;28;20476;-69
2022/04/05 03:54:50;;;;;;;24.58;2.58;;;6.00;99.90;;;;;;5081709;28;20123;-70
2022/04/05 03:57:16;;;;;;;24.50;3.38;;;6.10;99.90;;;;;;5082702;28;20051;-70
2022/04/05 03:59:42;;;;;;;22.35;3.13;;;6.00;99.90;;;;;;5076832;28;20547;-70
2022/04/05 04:02:11;;;;;;;18.25;2.53;;;6.00;99.90;;;;;;5083421;28;20090;-69
2022/04/05 04:04:36;;;;;;;17.08;2.53;;;6.00;99.90;;;;;;5081410;28;20067;-69
2022/04/05 04:07:02;;;;;;;24.83;3.38;;;5.90;99.90;;;;;;5081678;28;20063;-70
2022/04/05 04:09:28;;;;;;;23.20;3.60;;;5.90;99.90;;;;;;5078105;28;20045;-70
2022/04/05 04:11:53;;;;;;;27.65;3.17;;;5.90;99.90;;;;;;5071380;28;20418;-70
2022/04/05 04:14:19;;;;;;;24.80;3.17;;;6.00;99.90;;;;;;5081676;28;20034;-70
2022/04/05 04:16:44;;;;;;;20.20;3.75;;;6.00;99.90;;;;;;5094511;28;20351;-69
2022/04/05 04:19:10;;;;;;;30.75;3.10;;;6.00;99.90;;;;;;5078044;28;20033;-70
2022/04/05 04:21:36;;;;;;;22.50;3.33;;;6.00;99.90;;;;;;5079403;28;20038;-70
2022/04/05 04:24:02;;;;;;;23.27;3.22;;;6.10;99.90;;;;;;5077935;28;20126;-70
2022/04/05 04:26:27;;;;;;;21.70;2.83;;;6.00;99.90;;;;;;5085636;28;20047;-70
2022/04/05 04:28:57;;;;;;;30.55;3.50;;;7.40;99.90;;;;;;5076216;28;20048;-69
2022/04/05 04:31:23;;;;;;;21.23;3.17;;;6.00;99.90;;;;;;5084058;28;20055;-69
2022/04/05 04:33:49;;;;;;;21.08;3.08;;;6.00;99.90;;;;;;5076886;28;20036;-69
2022/04/05 04:36:15;;;;;;;21.70;3.58;;;6.00;99.90;;;;;;5079411;28;20045;-69
2022/04/05 04:38:41;;;;;;;19.15;3.15;;;6.00;99.90;;;;;;5073364;28;20044;-70
2022/04/05 04:41:06;;;;;;;31.38;3.63;;;6.00;99.90;;;;;;5084990;28;20040;-70
2022/04/05 04:43:32;;;;;;;26.55;3.90;;;7.00;99.90;;;;;;5074982;28;20045;-70
2022/04/05 04:45:58;;;;;;;26.20;2.80;;;5.90;99.90;;;;;;5076059;28;20050;-69
2022/04/05 04:48:24;;;;;;;23.85;3.70;;;5.90;99.90;;;;;;5084223;28;20048;-68
2022/04/05 04:50:50;;;;;;;23.92;3.30;;;5.90;99.90;;;;;;5079359;28;20070;-68
2022/04/05 04:53:16;;;;;;;21.73;3.47;;;5.90;99.90;;;;;;5075780;28;20189;-69
2022/04/05 04:55:41;;;;;;;22.90;3.22;;;5.90;99.90;;;;;;5087941;28;20040;-70
2022/04/05 04:58:07;;;;;;;27.88;4.38;;;6.00;99.90;;;;;;5079220;28;20112;-69
2022/04/05 05:00:33;;;;;;;22.98;3.10;;;6.00;99.90;;;;;;5083166;28;20421;-69
2022/04/05 05:02:59;;;;;;;28.55;3.90;;;6.00;99.90;;;;;;5081424;28;20036;-70
2022/04/05 05:05:25;;;;;;;33.22;3.60;;;6.00;99.90;;;;;;5084181;28;20303;-69
2022/04/05 05:07:52;;;;;;;17.77;3.05;;;6.00;99.90;;;;;;5082780;28;20131;-70
2022/04/05 05:10:19;;;;;;;32.95;3.30;;;6.00;99.90;;;;;;5075770;28;20055;-70
2022/04/05 05:12:45;;;;;;;26.73;3.77;;;6.00;99.90;;;;;;5076169;28;20102;-71
2022/04/05 05:15:18;;;;;;;16.70;3.47;;;6.10;99.90;;;;;;5074899;28;20048;-70
2022/04/05 05:17:45;;;;;;;26.17;3.00;;;6.10;99.90;;;;;;5076125;28;20489;-70
2022/04/05 05:20:12;;;;;;;30.00;4.13;;;6.10;99.90;;;;;;5078658;28;20036;-68
2022/04/05 05:22:39;;;;;;;32.83;3.70;;;6.10;99.90;;;;;;5083024;28;20041;-70
2022/04/05 05:25:05;;;;;;;26.10;3.35;;;6.10;99.90;;;;;;5077198;28;20412;-69
2022/04/05 05:27:31;;;;;;;21.77;3.80;;;6.10;99.90;;;;;;5080535;28;20040;-69
2022/04/05 05:29:57;;;;;;;29.83;3.22;;;6.10;99.90;;;;;;5078659;28;20095;-69
2022/04/05 05:32:22;;;;;;;23.40;3.38;;;6.10;99.90;;;;;;5056333;28;20470;-70
2022/04/05 05:34:48;;;;;;;29.55;4.25;;;6.10;99.90;;;;;;5073635;28;21701;-70
2022/04/05 05:37:14;;;;;;;27.48;3.45;;;6.10;99.90;;;;;;5077505;28;20040;-68
2022/04/05 05:39:40;;;;;;;27.13;3.38;;;6.20;99.90;;;;;;5072988;28;20033;-69
2022/04/05 05:42:07;;;;;;;20.27;3.10;;;6.20;99.90;;;;;;5074677;28;20390;-70
2022/04/05 05:44:35;;;;;;;26.30;2.92;;;6.20;99.90;;;;;;5076065;28;20144;-70
2022/04/05 05:47:03;;;;;;;21.58;3.15;;;6.30;99.90;;;;;;5077568;28;20049;-68
2022/04/05 05:49:28;;;;;;;31.13;3.75;;;6.30;99.90;;;;;;5080766;28;20041;-68
2022/04/05 05:51:54;;;;;;;22.48;3.08;;;6.30;99.90;;;;;;5079664;28;20085;-68
2022/04/05 05:54:20;;;;;;;27.85;3.63;;;6.30;99.90;;;;;;5076965;28;20036;-69
2022/04/05 05:56:45;;;;;;;27.08;3.85;;;6.40;99.90;;;;;;5077265;28;20055;-68
2022/04/05 05:59:11;;;;;;;26.17;3.90;;;7.10;99.90;;;;;;5074072;28;20044;-69
2022/04/05 06:01:37;;;;;;;21.98;4.10;;;6.40;99.90;;;;;;5084243;28;20043;-69
2022/04/05 06:04:04;;;;;;;25.17;3.30;;;6.50;99.90;;;;;;5077389;28;20390;-69
2022/04/05 06:06:30;;;;;;;31.85;3.78;;;6.50;99.90;;;;;;5075140;28;20186;-69
2022/04/05 06:08:56;;;;;;;20.85;3.28;;;6.50;99.90;;;;;;5063878;28;20044;-71
2022/04/05 06:11:25;;;;;;;25.33;4.15;;;6.60;99.90;;;;;;5084753;28;20093;-69
2022/04/05 06:13:51;;;;;;;20.77;3.22;;;6.60;99.90;;;;;;5082429;28;20127;-70
2022/04/05 06:16:20;;;;;;;16.30;3.20;;;6.60;99.90;;;;;;5081629;28;20055;-69
2022/04/05 06:18:47;;;;;;;13.57;2.83;;;6.60;99.90;;;;;;5083680;28;20115;-70
2022/04/05 06:21:14;;;;;;;24.15;3.90;;;6.60;99.90;;;;;;5082087;28;20059;-69
2022/04/05 06:23:39;;;;;;;36.80;4.05;;;6.70;99.90;;;;;;5069484;28;20037;-69
2022/04/05 06:26:05;;;;;;;19.17;3.38;;;6.60;99.90;;;;;;5076625;28;20055;-69
2022/04/05 06:28:31;;;;;;;14.02;3.22;;;6.70;99.90;;;;;;5088867;28;20072;-69
2022/04/05 06:30:57;;;;;;;22.45;2.95;;;6.70;99.90;;;;;;5080414;28;20533;-69
2022/04/05 06:33:22;;;;;;;18.10;3.50;;;6.70;99.90;;;;;;5088886;28;20035;-69
2022/04/05 06:35:52;;;;;;;22.45;2.97;;;6.70;99.90;;;;;;5085822;28;20507;-69
2022/04/05 06:38:18;;;;;;;13.63;2.60;;;6.80;99.90;;;;;;5084922;28;20178;-70
2022/04/05 06:40:44;;;;;;;26.10;4.00;;;6.90;99.90;;;;;;5089891;28;20118;-70
2022/04/05 06:43:11;;;;;;;22.00;3.17;;;6.80;99.90;;;;;;5089043;28;20051;-70
2022/04/05 06:45:37;;;;;;;17.00;3.70;;;6.80;99.90;;;;;;5080876;28;20040;-70
2022/04/05 06:48:03;;;;;;;21.33;3.20;;;6.80;99.90;;;;;;5079546;28;20040;-69
2022/04/05 06:50:29;;;;;;;24.92;3.35;;;6.80;99.90;;;;;;5084382;28;20045;-69
2022/04/05 06:52:58;;;;;;;17.30;2.95;;;6.30;99.90;;;;;;5087746;28;20390;-70
2022/04/05 06:55:24;;;;;;;24.52;2.90;;;6.90;99.90;;;;;;5087951;28;20043;-70
2022/04/05 06:57:50;;;;;;;20.58;3.35;;;7.00;99.90;;;;;;5077814;28;20037;-69
2022/04/05 07:00:22;;;;;;;29.48;3.60;;;7.10;99.90;;;;;;5082415;28;20389;-69
2022/04/05 07:02:48;;;;;;;20.85;2.75;;;7.20;99.90;;;;;;5109888;28;20043;-70
2022/04/05 07:05:14;;;;;;;18.90;2.53;;;7.30;99.90;;;;;;5093150;28;20505;-69
2022/04/05 07:07:40;;;;;;;15.82;2.95;;;7.30;99.90;;;;;;5092041;28;20552;-69
2022/04/05 07:10:08;;;;;;;25.00;3.42;;;7.30;99.90;;;;;;5081919;28;20509;-70
2022/04/05 07:12:34;;;;;;;30.48;4.60;;;7.40;99.90;;;;;;5070628;28;20044;-69
2022/04/05 07:15:00;;;;;;;19.08;3.28;;;7.40;99.90;;;;;;5075214;28;20367;-69
2022/04/05 07:17:26;;;;;;;12.05;2.60;;;7.40;99.90;;;;;;5080887;28;20042;-69
2022/04/05 07:19:52;;;;;;;24.67;3.30;;;7.50;99.90;;;;;;5086854;28;20115;-68
2022/04/05 07:22:19;;;;;;;19.55;3.10;;;7.50;99.90;;;;;;5088762;28;20569;-69
2022/04/05 07:24:46;;;;;;;21.50;3.50;;;7.50;99.90;;;;;;5094807;28;20047;-69
2022/04/05 07:27:12;;;;;;;14.75;3.22;;;7.50;99.90;;;;;;5086938;28;20036;-69
2022/04/05 07:29:38;;;;;;;20.13;4.07;;;8.20;99.90;;;;;;5085221;28;20127;-69
2022/04/05 07:32:04;;;;;;;20.88;4.45;;;7.60;99.90;;;;;;5094907;28;20119;-70
2022/04/05 07:34:30;;;;;;;20.40;3.33;;;7.60;99.90;;;;;;5087550;28;20170;-68
2022/04/05 07:36:56;;;;;;;13.25;3.17;;;7.60;99.90;;;;;;5105790;28;20476;-69
2022/04/05 07:39:23;;;;;;;17.27;3.45;;;7.60;99.90;;;;;;5088762;28;20092;-70
2022/04/05 07:41:49;;;;;;;17.70;3.72;;;7.60;99.90;;;;;;5084669;28;20052;-70
2022/04/05 07:44:15;;;;;;;11.15;2.80;;;7.60;99.90;;;;;;5091893;28;20048;-71
2022/04/05 07:46:41;;;;;;;20.23;3.90;;;7.60;99.90;;;;;;5089592;28;20058;-71
2022/04/05 07:49:06;;;;;;;13.82;2.80;;;7.60;99.90;;;;;;5093089;28;20040;-71
2022/04/05 07:51:32;;;;;;;17.33;3.30;;;7.60;99.90;;;;;;5090702;28;20394;-71
2022/04/05 07:53:58;;;;;;;16.33;3.97;;;7.50;99.90;;;;;;5081105;28;20048;-71
2022/04/05 07:56:23;;;;;;;8.95;2.80;;;7.50;99.90;;;;;;5093360;28;20486;-71
2022/04/05 07:58:49;;;;;;;12.32;3.25;;;8.30;99.90;;;;;;5093638;28;20039;-71
2022/04/05 08:01:15;;;;;;;13.80;3.05;;;7.90;99.90;;;;;;5094259;28;20039;-71
2022/04/05 08:03:40;;;;;;;16.70;3.35;;;7.60;99.90;;;;;;5094204;28;20043;-71
2022/04/05 08:06:06;;;;;;;15.18;2.97;;;7.70;99.90;;;;;;5093503;28;20075;-70
2022/04/05 08:08:32;;;;;;;13.23;2.63;;;7.60;99.90;;;;;;5089689;28;20048;-69
2022/04/05 08:10:58;;;;;;;24.45;3.20;;;7.50;99.90;;;;;;5077554;28;20127;-74
2022/04/05 08:13:26;;;;;;;20.42;3.30;;;7.60;99.90;;;;;;5092260;28;20064;-71
2022/04/05 08:15:53;;;;;;;15.38;2.72;;;7.60;99.90;;;;;;5092589;28;20094;-71
2022/04/05 08:18:19;;;;;;;14.63;2.78;;;7.60;99.90;;;;;;5093517;28;20075;-71
2022/04/05 08:20:45;;;;;;;16.33;2.97;;;7.70;99.90;;;;;;5093362;28;20564;-72
2022/04/05 08:23:11;;;;;;;13.55;2.70;;;7.80;99.90;;;;;;5093697;28;20185;-70
2022/04/05 08:25:37;;;;;;;13.68;2.72;;;7.80;99.90;;;;;;5093242;28;20040;-70
2022/04/05 08:28:04;;;;;;;14.05;2.90;;;7.80;99.90;;;;;;5093753;28;20109;-72
2022/04/05 08:30:30;;;;;;;14.40;3.40;;;7.80;99.90;;;;;;5079870;28;20376;-69
2022/04/05 08:32:56;;;;;;;16.88;3.67;;;7.80;99.90;;;;;;5081746;28;20051;-71
2022/04/05 08:35:22;;;;;;;21.05;3.55;;;7.80;99.90;;;;;;5085952;28;20048;-69
2022/04/05 08:37:51;;;;;;;14.50;2.70;;;7.80;99.90;;;;;;5079254;28;20062;-71
2022/04/05 08:40:19;;;;;;;10.38;2.90;;;7.90;99.90;;;;;;5084108;28;20454;-68
2022/04/05 08:42:48;;;;;;;16.92;2.97;;;8.00;99.90;;;;;;5091110;28;20119;-70
2022/04/05 08:45:16;;;;;;;16.90;3.03;;;8.10;99.90;;;;;;5081745;28;20123;-70
2022/04/05 08:47:59;;;;;;;;;;;8.20;99.90;;;;;;5092144;28;20052;-70
2022/04/05 08:50:28;;;;;;;15.82;3.25;;;8.20;99.90;;;;;;5073428;28;20711;-69
2022/04/05 08:52:55;;;;;;;9.50;2.70;;;8.40;99.90;;;;;;5072972;28;20041;-69
2022/04/05 08:55:21;;;;;;;15.70;3.55;;;8.50;99.90;;;;;;5081900;28;20094;-70
2022/04/05 08:57:47;;;;;;;18.50;4.18;;;8.60;99.90;;;;;;5092274;28;20039;-70
2022/04/05 09:00:15;;;;;;;17.27;3.55;;;9.00;99.90;;;;;;5087319;28;20372;-70
2022/04/05 09:03:00;;;;;;;;;;;8.80;99.90;;;;;;5077073;28;20490;-70
2022/04/05 09:05:31;;;;;;;9.68;3.22;;;8.90;99.90;;;;;;5086902;28;19920;-69
2022/04/05 09:08:17;;;;;;;8.65;2.53;;;9.00;99.90;;;;;;5079921;28;20115;-69
2022/04/05 09:10:45;;;;;;;11.45;2.92;;;9.00;99.90;;;;;;5086942;28;20043;-68
2022/04/05 09:13:12;;;;;;;14.05;3.28;;;9.00;99.90;;;;;;5090907;28;20047;-70
2022/04/05 09:15:41;;;;;;;11.57;3.00;;;9.00;99.90;;;;;;5093011;28;20076;-69
2022/04/05 09:18:07;;;;;;;12.05;3.13;;;9.00;99.90;;;;;;5090760;28;20102;-69
2022/04/05 09:20:45;;;;;;;10.55;2.70;;;9.00;99.90;;;;;;5087898;28;20049;-69
2022/04/05 09:23:25;;;;;;;10.95;2.72;;;9.00;99.90;;;;;;5086209;28;20123;-69
2022/04/05 09:25:57;;;;;;;8.48;2.67;;;9.00;99.90;;;;;;5079513;28;20122;-68
2022/04/05 09:28:35;;;;;;;10.43;2.28;;;9.00;99.90;;;;;;5084315;28;20041;-70
2022/04/05 09:31:03;;;;;;;10.67;3.00;;;9.10;99.90;;;;;;5071325;28;20442;-68
2022/04/05 09:33:30;;;;;;;10.30;2.63;;;9.20;99.90;;;;;;5079042;28;20478;-70
2022/04/05 09:36:10;;;;;;;13.80;2.83;;;9.10;99.90;;;;;;5081368;28;20474;-70
2022/04/05 09:38:37;;;;;;;10.65;2.55;;;9.20;99.90;;;;;;5080507;28;20044;-70
2022/04/05 09:41:22;;;;;;;10.85;2.55;;;9.10;99.90;;;;;;5071181;28;20557;-70
2022/04/05 09:43:59;;;;;;;13.15;2.83;;;9.20;99.90;;;;;;5073272;28;20079;-70
2022/04/05 09:46:26;;;;;;;12.38;2.60;;;9.10;99.90;;;;;;5082452;28;20101;-70
2022/04/05 09:49:13;;;;;;;11.10;2.75;;;9.00;99.90;;;;;;5083471;28;20097;-69
2022/04/05 09:51:44;;;;;;;10.95;2.85;;;8.90;99.90;;;;;;5083373;28;20105;-70
2022/04/05 09:54:27;;;;;;;8.10;2.65;;;8.80;99.90;;;;;;5083064;28;20513;-70
2022/04/05 09:57:08;;;;;;;10.50;3.38;;;8.80;99.90;;;;;;5086175;28;20119;-69
2022/04/05 09:59:38;;;;;;;10.05;3.28;;;8.70;99.90;;;;;;5077511;28;20123;-70
2022/04/05 10:02:12;;;;;;;13.80;2.95;;;8.70;99.90;;;;;;5088438;28;20119;-69
2022/04/05 10:05:05;;;;;;;13.15;3.00;;;8.60;99.90;;;;;;5091582;28;20044;-69
2022/04/05 10:07:31;;;;;;;15.88;3.10;;;8.70;99.90;;;;;;5078038;28;20094;-70
2022/04/05 10:10:03;;;;;;;12.13;3.55;;;8.70;99.90;;;;;;5073219;28;20379;-71
2022/04/05 10:12:29;;;;;;;11.38;3.20;;;8.20;99.90;;;;;;5072205;28;20447;-69
2022/04/05 10:14:56;;;;;;;6.78;2.83;;;8.90;99.90;;;;;;5080484;28;20044;-70
2022/04/05 10:17:26;;;;;;;12.77;3.22;;;9.10;99.90;;;;;;5090813;28;20543;-70
2022/04/05 10:19:54;;;;;;;8.02;2.95;;;9.10;99.90;;;;;;5090369;28;20048;-70
2022/04/05 10:22:22;;;;;;;7.85;2.53;;;9.20;99.90;;;;;;5077303;28;20123;-70
2022/04/05 10:24:52;;;;;;;6.68;2.50;;;9.20;99.90;;;;;;5078489;28;20036;-69
2022/04/05 10:27:18;;;;;;;6.97;2.80;;;9.20;99.90;;;;;;5083328;28;20033;-70
2022/04/05 10:29:45;;;;;;;5.15;2.22;;;9.20;99.90;;;;;;5077962;28;20036;-71
2022/04/05 10:32:17;;;;;;;5.07;2.20;;;9.20;99.90;;;;;;5086279;28;20047;-70
2022/04/05 10:34:49;;;;;;;5.70;2.17;;;9.10;99.90;;;;;;5092424;28;20036;-70
2022/04/05 10:37:31;;;;;;;4.30;1.90;;;9.10;99.90;;;;;;5086968;28;20047;-70
2022/04/05 10:39:57;;;;;;;5.10;2.50;;;9.10;99.90;;;;;;5084430;28;20040;-69
2022/04/05 10:42:25;;;;;;;5.20;2.22;;;9.00;99.90;;;;;;5093064;28;20063;-70
2022/04/05 10:45:08;;;;;;;5.47;2.20;;;8.90;99.90;;;;;;5090830;28;20397;-70
2022/04/05 10:48:11;;;;;;;5.93;2.78;;;8.90;99.90;;;;;;5083127;28;20543;-71
2022/04/05 10:50:37;;;;;;;5.57;2.40;;;8.80;99.90;;;;;;5091401;28;20048;-70
2022/04/05 10:53:20;;;;;;;5.82;2.63;;;8.90;99.90;;;;;;5093594;28;20526;-70
2022/04/05 10:56:04;;;;;;;7.10;2.60;;;9.10;99.90;;;;;;5081902;28;20397;-70
2022/04/05 10:58:31;;;;;;;4.10;2.10;;;9.20;99.90;;;;;;5095345;28;20157;-69
2022/04/05 11:01:39;;;;;;;5.50;2.25;;;9.20;99.90;;;;;;5080714;28;20067;-70
2022/04/05 11:04:20;;;;;;;10.57;2.05;;;9.30;99.90;;;;;;5086380;28;20051;-69
2022/04/05 11:07:01;;;;;;;5.55;2.50;;;9.30;99.90;;;;;;5095563;28;20040;-71
2022/04/05 11:09:30;;;;;;;3.75;2.20;;;9.60;99.90;;;;;;5082116;28;20045;-70
2022/04/05 11:11:56;;;;;;;3.58;2.00;;;9.40;99.90;;;;;;5094545;28;20043;-70
2022/04/05 11:14:50;;;;;;;3.28;1.98;;;9.50;99.90;;;;;;5094020;28;20045;-69
2022/04/05 11:17:18;;;;;;;4.68;2.03;;;9.40;99.90;;;;;;5089911;28;20047;-70
2022/04/05 11:19:52;;;;;;;3.90;2.13;;;9.50;99.90;;;;;;5103600;28;20051;-70
2022/04/05 11:22:20;;;;;;;5.80;2.35;;;9.80;99.90;;;;;;5094131;28;20052;-70
2022/04/05 11:25:25;;;;;;;;;;;9.50;99.90;;;;;;5091204;28;20040;-69
2022/04/05 11:27:52;;;;;;;3.92;2.00;;;9.40;99.90;;;;;;4999677;28;19921;-70
2022/04/05 11:30:26;;;;;;;2.47;1.83;;;9.50;99.90;;;;;;5043353;28;20160;-70
2022/04/05 11:33:14;;;;;;;4.10;2.22;;;9.40;99.90;;;;;;5075066;28;20090;-69
2022/04/05 11:36:11;;;;;;;2.95;1.83;;;9.40;99.90;;;;;;5092727;28;20052;-70
2022/04/05 11:38:48;;;;;;;3.38;2.50;;;9.60;99.90;;;;;;5071687;28;20362;-70
2022/04/05 11:41:22;;;;;;;3.92;2.03;;;9.80;99.90;;;;;;5074676;28;20127;-69
2022/04/05 11:43:54;;;;;;;5.68;2.15;;;9.90;99.90;;;;;;5086437;28;20040;-70
2022/04/05 11:46:28;;;;;;;4.20;1.88;;;10.00;99.90;;;;;;5080459;28;20513;-71
2022/04/05 11:48:57;;;;;;;4.15;1.98;;;9.70;99.90;;;;;;5073132;28;20128;-69
2022/04/05 11:51:26;;;;;;;2.83;1.90;;;9.70;99.90;;;;;;5079516;28;20123;-69
2022/04/05 11:54:11;;;;;;;2.92;1.90;;;9.70;99.90;;;;;;5074229;28;20048;-70
2022/04/05 11:56:42;;;;;;;2.40;1.83;;;9.90;99.90;;;;;;5074245;28;20042;-70
2022/04/05 11:59:16;;;;;;;3.42;1.90;;;9.90;99.90;;;;;;5076358;28;20051;-69
2022/04/05 12:01:43;;;;;;;3.15;2.00;;;9.50;99.90;;;;;;5081268;28;20039;-70
2022/04/05 12:04:13;;;;;;;2.70;1.90;;;9.50;99.90;;;;;;5093101;28;20040;-69
2022/04/05 12:06:41;;;;;;;3.30;1.80;;;9.60;99.90;;;;;;5085951;28;20498;-70
2022/04/05 12:09:09;;;;;;;2.80;2.10;;;9.70;99.90;;;;;;5082857;28;20041;-70
2022/04/05 12:11:36;;;;;;;3.97;2.05;;;9.70;99.90;;;;;;5079089;28;20036;-69
2022/04/05 12:14:09;;;;;;;2.97;1.75;;;9.70;99.90;;;;;;5072654;28;20044;-70
2022/04/05 12:16:50;;;;;;;3.10;1.90;;;9.90;99.90;;;;;;5089725;28;20481;-69
2022/04/05 12:19:39;;;;;;;2.85;2.03;;;10.10;99.90;;;;;;5073622;28;20042;-69
2022/04/05 12:22:16;;;;;;;2.65;1.75;;;10.30;99.90;;;;;;5057777;28;20040;-70
2022/04/05 12:24:50;;;;;;;5.07;2.05;;;10.60;99.90;;;;;;5082746;28;20039;-70
2022/04/05 12:27:19;;;;;;;3.75;1.80;;;10.60;99.90;;;;;;5073831;28;20053;-70
2022/04/05 12:29:44;;;;;;;2.97;2.00;;;10.60;99.90;;;;;;5084105;28;20040;-70
2022/04/05 12:32:13;;;;;;;2.80;2.03;;;10.60;99.90;;;;;;5081251;28;20170;-69
2022/04/05 12:34:39;;;;;;;4.28;2.08;;;10.60;99.90;;;;;;5073008;28;20044;-70
2022/04/05 12:37:08;;;;;;;3.70;2.13;;;10.60;99.90;;;;;;5081848;28;20130;-69
2022/04/05 12:39:40;;;;;;;;;;;10.70;99.90;;;;;;5081175;28;20044;-70
2022/04/05 12:42:08;;;;;;;3.28;2.00;;;10.70;99.90;;;;;;5080739;28;19920;-69
2022/04/05 12:44:40;;;;;;;3.10;2.30;;;10.70;99.90;;;;;;5092038;28;20048;-69
2022/04/05 12:47:08;;;;;;;2.85;2.20;;;10.70;99.90;;;;;;5092828;28;20418;-69
2022/04/05 12:49:39;;;;;;;8.35;2.05;;;10.60;99.90;;;;;;5084470;28;20040;-70
2022/04/05 12:52:15;;;;;;;3.17;2.33;;;10.60;99.90;;;;;;5071392;28;20511;-70
2022/04/05 12:54:46;;;;;;;3.17;2.45;;;10.60;99.90;;;;;;5073983;28;20405;-70
2022/04/05 12:57:32;;;;;;;4.07;2.78;;;10.60;99.90;;;;;;5090509;28;20036;-70